sensor_id;sensor_type;location;lat;lon;timestamp;P1;durP1;ratioP1;P2;durP2;ratioP2
69213;SDS011;56325;47.030;18.518;2023-07-09T00:00:34;3.40;;;3.20;;
69213;SDS011;56325;47.030;18.518;2023-07-09T00:03:09;7.47;;;3.20;;
69213;SDS011;56325;47.030;18.518;2023-07-09T00:05:46;4.55;;;3.33;;
69213;SDS011;56325;47.030;18.518;2023-07-09T00:08:26;3.22;;;3.03;;
69213;SDS011;56325;47.030;18.518;2023-07-09T00:11:02;2.97;;;2.78;;
69213;SDS011;56325;47.030;18.518;2023-07-09T00:13:37;3.92;;;2.70;;
69213;SDS011;56325;47.030;18.518;2023-07-09T00:16:12;2.90;;;2.70;;
69213;SDS011;56325;47.030;18.518;2023-07-09T00:18:50;3.25;;;2.95;;
69213;SDS011;56325;47.030;18.518;2023-07-09T00:21:25;5.45;;;2.97;;
69213;SDS011;56325;47.030;18.518;2023-07-09T00:24:01;3.05;;;2.80;;
69213;SDS011;56325;47.030;18.518;2023-07-09T00:26:37;2.80;;;2.70;;
69213;SDS011;56325;47.030;18.518;2023-07-09T00:29:13;3.40;;;3.12;;
69213;SDS011;56325;47.030;18.518;2023-07-09T00:31:48;4.22;;;3.17;;
69213;SDS011;56325;47.030;18.518;2023-07-09T00:34:23;3.12;;;2.90;;
69213;SDS011;56325;47.030;18.518;2023-07-09T00:36:57;7.97;;;2.85;;
69213;SDS011;56325;47.030;18.518;2023-07-09T00:39:35;3.33;;;3.20;;
69213;SDS011;56325;47.030;18.518;2023-07-09T00:42:12;8.13;;;3.10;;
69213;SDS011;56325;47.030;18.518;2023-07-09T00:44:50;3.12;;;2.85;;
69213;SDS011;56325;47.030;18.518;2023-07-09T00:47:28;3.35;;;2.97;;
69213;SDS011;56325;47.030;18.518;2023-07-09T00:50:21;3.50;;;3.30;;
69213;SDS011;56325;47.030;18.518;2023-07-09T00:53:04;3.50;;;3.15;;
69213;SDS011;56325;47.030;18.518;2023-07-09T00:56:03;3.53;;;3.33;;
69213;SDS011;56325;47.030;18.518;2023-07-09T00:58:40;10.45;;;3.47;;
69213;SDS011;56325;47.030;18.518;2023-07-09T01:01:19;10.75;;;3.42;;
69213;SDS011;56325;47.030;18.518;2023-07-09T01:03:56;6.18;;;5.07;;
69213;SDS011;56325;47.030;18.518;2023-07-09T01:06:33;5.72;;;3.42;;
69213;SDS011;56325;47.030;18.518;2023-07-09T01:09:11;5.07;;;3.10;;
69213;SDS011;56325;47.030;18.518;2023-07-09T01:11:47;8.52;;;3.25;;
69213;SDS011;56325;47.030;18.518;2023-07-09T01:14:22;4.25;;;3.85;;
69213;SDS011;56325;47.030;18.518;2023-07-09T01:17:00;8.32;;;3.90;;
69213;SDS011;56325;47.030;18.518;2023-07-09T01:19:38;4.00;;;3.80;;
69213;SDS011;56325;47.030;18.518;2023-07-09T01:22:19;4.18;;;3.53;;
69213;SDS011;56325;47.030;18.518;2023-07-09T01:24:56;3.10;;;3.00;;
69213;SDS011;56325;47.030;18.518;2023-07-09T01:27:36;3.80;;;3.40;;
69213;SDS011;56325;47.030;18.518;2023-07-09T01:30:16;3.37;;;3.03;;
69213;SDS011;56325;47.030;18.518;2023-07-09T01:32:56;3.42;;;3.17;;
69213;SDS011;56325;47.030;18.518;2023-07-09T01:35:34;5.65;;;2.70;;
69213;SDS011;56325;47.030;18.518;2023-07-09T01:38:12;11.45;;;3.20;;
69213;SDS011;56325;47.030;18.518;2023-07-09T01:40:47;4.68;;;3.47;;
69213;SDS011;56325;47.030;18.518;2023-07-09T01:43:22;3.17;;;3.03;;
69213;SDS011;56325;47.030;18.518;2023-07-09T01:45:59;4.12;;;3.70;;
69213;SDS011;56325;47.030;18.518;2023-07-09T01:48:35;3.50;;;3.17;;
69213;SDS011;56325;47.030;18.518;2023-07-09T01:51:14;5.28;;;3.53;;
69213;SDS011;56325;47.030;18.518;2023-07-09T01:53:51;5.97;;;3.22;;
69213;SDS011;56325;47.030;18.518;2023-07-09T01:56:26;3.60;;;3.40;;
69213;SDS011;56325;47.030;18.518;2023-07-09T01:59:02;5.45;;;3.37;;
69213;SDS011;56325;47.030;18.518;2023-07-09T02:01:37;3.70;;;3.30;;
69213;SDS011;56325;47.030;18.518;2023-07-09T02:04:12;3.67;;;3.20;;
69213;SDS011;56325;47.030;18.518;2023-07-09T02:06:47;4.57;;;3.87;;
69213;SDS011;56325;47.030;18.518;2023-07-09T02:09:23;5.47;;;3.60;;
69213;SDS011;56325;47.030;18.518;2023-07-09T02:11:57;3.30;;;3.10;;
69213;SDS011;56325;47.030;18.518;2023-07-09T02:14:32;3.80;;;3.60;;
69213;SDS011;56325;47.030;18.518;2023-07-09T02:17:07;4.37;;;3.30;;
69213;SDS011;56325;47.030;18.518;2023-07-09T02:19:43;3.10;;;3.00;;
69213;SDS011;56325;47.030;18.518;2023-07-09T02:22:18;3.12;;;3.03;;
69213;SDS011;56325;47.030;18.518;2023-07-09T02:24:54;4.37;;;3.70;;
69213;SDS011;56325;47.030;18.518;2023-07-09T02:27:29;12.40;;;3.80;;
69213;SDS011;56325;47.030;18.518;2023-07-09T02:30:04;4.00;;;3.60;;
69213;SDS011;56325;47.030;18.518;2023-07-09T02:32:40;4.20;;;3.92;;
69213;SDS011;56325;47.030;18.518;2023-07-09T02:35:15;25.95;;;4.85;;
69213;SDS011;56325;47.030;18.518;2023-07-09T02:37:50;9.07;;;3.75;;
69213;SDS011;56325;47.030;18.518;2023-07-09T02:40:25;5.18;;;4.03;;
69213;SDS011;56325;47.030;18.518;2023-07-09T02:43:00;3.85;;;3.65;;
69213;SDS011;56325;47.030;18.518;2023-07-09T02:45:35;4.03;;;3.72;;
69213;SDS011;56325;47.030;18.518;2023-07-09T02:48:10;4.75;;;3.53;;
69213;SDS011;56325;47.030;18.518;2023-07-09T02:50:45;4.68;;;3.80;;
69213;SDS011;56325;47.030;18.518;2023-07-09T02:53:19;4.15;;;3.90;;
69213;SDS011;56325;47.030;18.518;2023-07-09T02:55:56;4.93;;;4.50;;
69213;SDS011;56325;47.030;18.518;2023-07-09T02:58:31;4.15;;;3.95;;
69213;SDS011;56325;47.030;18.518;2023-07-09T03:01:05;4.25;;;4.05;;
69213;SDS011;56325;47.030;18.518;2023-07-09T03:03:40;5.40;;;4.15;;
69213;SDS011;56325;47.030;18.518;2023-07-09T03:06:15;5.22;;;4.35;;
69213;SDS011;56325;47.030;18.518;2023-07-09T03:08:49;4.50;;;4.10;;
69213;SDS011;56325;47.030;18.518;2023-07-09T03:11:27;4.50;;;4.20;;
69213;SDS011;56325;47.030;18.518;2023-07-09T03:14:03;4.18;;;3.87;;
69213;SDS011;56325;47.030;18.518;2023-07-09T03:16:38;7.32;;;3.83;;
69213;SDS011;56325;47.030;18.518;2023-07-09T03:19:13;5.53;;;4.20;;
69213;SDS011;56325;47.030;18.518;2023-07-09T03:21:47;4.25;;;3.72;;
69213;SDS011;56325;47.030;18.518;2023-07-09T03:24:22;5.68;;;3.37;;
69213;SDS011;56325;47.030;18.518;2023-07-09T03:26:58;13.30;;;3.80;;
69213;SDS011;56325;47.030;18.518;2023-07-09T03:29:33;3.72;;;3.42;;
69213;SDS011;56325;47.030;18.518;2023-07-09T03:32:07;4.15;;;3.75;;
69213;SDS011;56325;47.030;18.518;2023-07-09T03:34:42;8.18;;;3.92;;
69213;SDS011;56325;47.030;18.518;2023-07-09T03:37:16;6.25;;;3.58;;
69213;SDS011;56325;47.030;18.518;2023-07-09T03:39:51;3.55;;;3.25;;
69213;SDS011;56325;47.030;18.518;2023-07-09T03:42:27;5.15;;;3.65;;
69213;SDS011;56325;47.030;18.518;2023-07-09T03:45:02;3.75;;;3.55;;
69213;SDS011;56325;47.030;18.518;2023-07-09T03:47:37;5.70;;;3.90;;
69213;SDS011;56325;47.030;18.518;2023-07-09T03:50:12;6.60;;;3.55;;
69213;SDS011;56325;47.030;18.518;2023-07-09T03:52:46;3.95;;;3.62;;
69213;SDS011;56325;47.030;18.518;2023-07-09T03:55:21;4.53;;;4.07;;
69213;SDS011;56325;47.030;18.518;2023-07-09T03:58:00;4.18;;;3.62;;
69213;SDS011;56325;47.030;18.518;2023-07-09T04:00:36;7.85;;;3.12;;
69213;SDS011;56325;47.030;18.518;2023-07-09T04:03:11;6.60;;;3.17;;
69213;SDS011;56325;47.030;18.518;2023-07-09T04:05:47;3.87;;;3.40;;
69213;SDS011;56325;47.030;18.518;2023-07-09T04:08:22;4.82;;;3.03;;
69213;SDS011;56325;47.030;18.518;2023-07-09T04:10:58;4.05;;;3.58;;
69213;SDS011;56325;47.030;18.518;2023-07-09T04:13:38;3.33;;;3.03;;
69213;SDS011;56325;47.030;18.518;2023-07-09T04:16:12;3.95;;;3.53;;
69213;SDS011;56325;47.030;18.518;2023-07-09T04:18:48;3.67;;;3.45;;
69213;SDS011;56325;47.030;18.518;2023-07-09T04:21:22;5.65;;;4.20;;
69213;SDS011;56325;47.030;18.518;2023-07-09T04:23:57;6.93;;;3.62;;
69213;SDS011;56325;47.030;18.518;2023-07-09T04:26:32;3.60;;;3.40;;
69213;SDS011;56325;47.030;18.518;2023-07-09T04:29:08;3.90;;;3.50;;
69213;SDS011;56325;47.030;18.518;2023-07-09T04:31:43;3.83;;;3.50;;
69213;SDS011;56325;47.030;18.518;2023-07-09T04:34:18;6.35;;;3.78;;
69213;SDS011;56325;47.030;18.518;2023-07-09T04:36:52;9.20;;;3.80;;
69213;SDS011;56325;47.030;18.518;2023-07-09T04:39:27;3.55;;;3.28;;
69213;SDS011;56325;47.030;18.518;2023-07-09T04:42:02;3.83;;;3.53;;
69213;SDS011;56325;47.030;18.518;2023-07-09T04:44:38;3.67;;;3.45;;
69213;SDS011;56325;47.030;18.518;2023-07-09T04:47:13;3.50;;;3.40;;
69213;SDS011;56325;47.030;18.518;2023-07-09T04:49:47;3.90;;;3.70;;
69213;SDS011;56325;47.030;18.518;2023-07-09T04:52:22;3.70;;;3.40;;
69213;SDS011;56325;47.030;18.518;2023-07-09T04:54:56;3.80;;;3.47;;
69213;SDS011;56325;47.030;18.518;2023-07-09T04:57:31;5.93;;;3.50;;
69213;SDS011;56325;47.030;18.518;2023-07-09T05:00:08;16.05;;;4.25;;
69213;SDS011;56325;47.030;18.518;2023-07-09T05:02:43;5.82;;;5.12;;
69213;SDS011;56325;47.030;18.518;2023-07-09T05:05:18;7.30;;;6.05;;
69213;SDS011;56325;47.030;18.518;2023-07-09T05:07:53;9.55;;;7.18;;
69213;SDS011;56325;47.030;18.518;2023-07-09T05:10:28;11.40;;;6.82;;
69213;SDS011;56325;47.030;18.518;2023-07-09T05:13:02;9.82;;;6.80;;
69213;SDS011;56325;47.030;18.518;2023-07-09T05:15:41;8.13;;;6.97;;
69213;SDS011;56325;47.030;18.518;2023-07-09T05:18:17;14.48;;;7.78;;
69213;SDS011;56325;47.030;18.518;2023-07-09T05:20:52;10.05;;;6.50;;
69213;SDS011;56325;47.030;18.518;2023-07-09T05:23:27;9.18;;;6.55;;
69213;SDS011;56325;47.030;18.518;2023-07-09T05:26:02;10.45;;;6.35;;
69213;SDS011;56325;47.030;18.518;2023-07-09T05:28:37;10.43;;;6.20;;
69213;SDS011;56325;47.030;18.518;2023-07-09T05:31:13;10.35;;;6.87;;
69213;SDS011;56325;47.030;18.518;2023-07-09T05:33:48;13.35;;;7.22;;
69213;SDS011;56325;47.030;18.518;2023-07-09T05:36:23;11.32;;;7.65;;
69213;SDS011;56325;47.030;18.518;2023-07-09T05:38:59;11.77;;;7.68;;
69213;SDS011;56325;47.030;18.518;2023-07-09T05:41:34;9.38;;;8.10;;
69213;SDS011;56325;47.030;18.518;2023-07-09T05:44:09;8.45;;;7.50;;
69213;SDS011;56325;47.030;18.518;2023-07-09T05:46:45;13.10;;;8.55;;
69213;SDS011;56325;47.030;18.518;2023-07-09T05:49:19;16.65;;;8.77;;
69213;SDS011;56325;47.030;18.518;2023-07-09T05:51:54;22.23;;;8.75;;
69213;SDS011;56325;47.030;18.518;2023-07-09T05:54:29;12.48;;;8.40;;
69213;SDS011;56325;47.030;18.518;2023-07-09T05:57:04;9.15;;;7.78;;
69213;SDS011;56325;47.030;18.518;2023-07-09T05:59:39;10.65;;;7.00;;
69213;SDS011;56325;47.030;18.518;2023-07-09T06:05:27;10.25;;;8.25;;
69213;SDS011;56325;47.030;18.518;2023-07-09T06:08:03;9.00;;;7.68;;
69213;SDS011;56325;47.030;18.518;2023-07-09T06:10:38;10.90;;;7.93;;
69213;SDS011;56325;47.030;18.518;2023-07-09T06:13:16;9.13;;;7.57;;
69213;SDS011;56325;47.030;18.518;2023-07-09T06:15:51;7.68;;;6.90;;
69213;SDS011;56325;47.030;18.518;2023-07-09T06:18:28;11.65;;;6.30;;
69213;SDS011;56325;47.030;18.518;2023-07-09T06:21:04;11.38;;;6.65;;
69213;SDS011;56325;47.030;18.518;2023-07-09T06:23:40;9.23;;;6.32;;
69213;SDS011;56325;47.030;18.518;2023-07-09T06:26:14;9.98;;;5.80;;
69213;SDS011;56325;47.030;18.518;2023-07-09T06:28:49;12.88;;;5.70;;
69213;SDS011;56325;47.030;18.518;2023-07-09T06:31:24;12.55;;;5.37;;
69213;SDS011;56325;47.030;18.518;2023-07-09T06:33:59;7.20;;;5.10;;
69213;SDS011;56325;47.030;18.518;2023-07-09T06:36:35;6.62;;;5.18;;
69213;SDS011;56325;47.030;18.518;2023-07-09T06:39:09;7.43;;;5.50;;
69213;SDS011;56325;47.030;18.518;2023-07-09T06:41:44;5.90;;;5.35;;
69213;SDS011;56325;47.030;18.518;2023-07-09T06:44:30;5.60;;;5.20;;
69213;SDS011;56325;47.030;18.518;2023-07-09T06:47:05;5.47;;;5.03;;
69213;SDS011;56325;47.030;18.518;2023-07-09T06:49:42;5.32;;;4.93;;
69213;SDS011;56325;47.030;18.518;2023-07-09T06:52:18;5.35;;;4.93;;
69213;SDS011;56325;47.030;18.518;2023-07-09T06:54:53;9.32;;;5.12;;
69213;SDS011;56325;47.030;18.518;2023-07-09T06:57:27;5.43;;;4.70;;
69213;SDS011;56325;47.030;18.518;2023-07-09T07:00:02;7.28;;;4.28;;
69213;SDS011;56325;47.030;18.518;2023-07-09T07:02:37;4.87;;;4.47;;
69213;SDS011;56325;47.030;18.518;2023-07-09T07:05:13;4.68;;;4.28;;
69213;SDS011;56325;47.030;18.518;2023-07-09T07:07:48;4.75;;;4.25;;
69213;SDS011;56325;47.030;18.518;2023-07-09T07:10:23;4.50;;;3.92;;
69213;SDS011;56325;47.030;18.518;2023-07-09T07:12:59;4.65;;;4.25;;
69213;SDS011;56325;47.030;18.518;2023-07-09T07:15:36;4.47;;;4.10;;
69213;SDS011;56325;47.030;18.518;2023-07-09T07:18:11;4.85;;;3.62;;
69213;SDS011;56325;47.030;18.518;2023-07-09T07:20:47;4.30;;;3.55;;
69213;SDS011;56325;47.030;18.518;2023-07-09T07:23:23;3.92;;;3.65;;
69213;SDS011;56325;47.030;18.518;2023-07-09T07:25:58;3.72;;;3.08;;
69213;SDS011;56325;47.030;18.518;2023-07-09T07:28:34;3.67;;;3.40;;
69213;SDS011;56325;47.030;18.518;2023-07-09T07:31:09;7.80;;;3.28;;
69213;SDS011;56325;47.030;18.518;2023-07-09T07:33:44;3.60;;;3.30;;
69213;SDS011;56325;47.030;18.518;2023-07-09T07:36:20;3.35;;;3.15;;
69213;SDS011;56325;47.030;18.518;2023-07-09T07:38:57;4.72;;;3.15;;
69213;SDS011;56325;47.030;18.518;2023-07-09T07:41:32;3.00;;;2.67;;
69213;SDS011;56325;47.030;18.518;2023-07-09T07:44:07;3.05;;;2.30;;
69213;SDS011;56325;47.030;18.518;2023-07-09T07:46:42;2.22;;;2.12;;
69213;SDS011;56325;47.030;18.518;2023-07-09T07:49:18;3.22;;;2.03;;
69213;SDS011;56325;47.030;18.518;2023-07-09T07:51:53;12.65;;;2.83;;
69213;SDS011;56325;47.030;18.518;2023-07-09T07:54:28;2.67;;;2.47;;
69213;SDS011;56325;47.030;18.518;2023-07-09T07:57:04;2.40;;;2.30;;
69213;SDS011;56325;47.030;18.518;2023-07-09T07:59:42;2.78;;;2.65;;
69213;SDS011;56325;47.030;18.518;2023-07-09T08:02:16;2.83;;;2.50;;
69213;SDS011;56325;47.030;18.518;2023-07-09T08:04:51;4.37;;;2.87;;
69213;SDS011;56325;47.030;18.518;2023-07-09T08:07:27;2.28;;;2.08;;
69213;SDS011;56325;47.030;18.518;2023-07-09T08:10:03;2.65;;;2.30;;
69213;SDS011;56325;47.030;18.518;2023-07-09T08:12:37;10.27;;;2.92;;
69213;SDS011;56325;47.030;18.518;2023-07-09T08:15:12;2.55;;;2.37;;
69213;SDS011;56325;47.030;18.518;2023-07-09T08:17:47;2.30;;;2.20;;
69213;SDS011;56325;47.030;18.518;2023-07-09T08:20:22;3.47;;;2.42;;
69213;SDS011;56325;47.030;18.518;2023-07-09T08:22:58;2.40;;;2.30;;
69213;SDS011;56325;47.030;18.518;2023-07-09T08:25:33;2.53;;;2.33;;
69213;SDS011;56325;47.030;18.518;2023-07-09T08:28:07;11.95;;;2.80;;
69213;SDS011;56325;47.030;18.518;2023-07-09T08:30:42;2.83;;;2.62;;
69213;SDS011;56325;47.030;18.518;2023-07-09T08:33:17;2.20;;;2.10;;
69213;SDS011;56325;47.030;18.518;2023-07-09T08:35:52;3.80;;;2.12;;
69213;SDS011;56325;47.030;18.518;2023-07-09T08:38:29;5.93;;;2.20;;
69213;SDS011;56325;47.030;18.518;2023-07-09T08:41:07;2.20;;;2.10;;
69213;SDS011;56325;47.030;18.518;2023-07-09T08:43:47;5.12;;;2.50;;
69213;SDS011;56325;47.030;18.518;2023-07-09T08:46:29;6.03;;;2.08;;
69213;SDS011;56325;47.030;18.518;2023-07-09T08:49:14;7.65;;;2.28;;
69213;SDS011;56325;47.030;18.518;2023-07-09T08:51:54;2.00;;;1.90;;
69213;SDS011;56325;47.030;18.518;2023-07-09T08:54:32;2.00;;;1.90;;
69213;SDS011;56325;47.030;18.518;2023-07-09T08:57:14;3.10;;;1.98;;
69213;SDS011;56325;47.030;18.518;2023-07-09T08:59:53;2.17;;;2.05;;
69213;SDS011;56325;47.030;18.518;2023-07-09T09:02:46;2.67;;;2.20;;
69213;SDS011;56325;47.030;18.518;2023-07-09T09:05:25;2.08;;;1.90;;
69213;SDS011;56325;47.030;18.518;2023-07-09T09:08:03;2.40;;;2.20;;
69213;SDS011;56325;47.030;18.518;2023-07-09T09:10:54;3.90;;;2.20;;
69213;SDS011;56325;47.030;18.518;2023-07-09T09:13:36;4.00;;;2.22;;
69213;SDS011;56325;47.030;18.518;2023-07-09T09:16:14;2.45;;;2.22;;
69213;SDS011;56325;47.030;18.518;2023-07-09T09:18:59;5.78;;;2.08;;
69213;SDS011;56325;47.030;18.518;2023-07-09T09:21:35;1.87;;;1.73;;
69213;SDS011;56325;47.030;18.518;2023-07-09T09:24:13;2.37;;;2.28;;
69213;SDS011;56325;47.030;18.518;2023-07-09T09:26:51;1.95;;;1.85;;
69213;SDS011;56325;47.030;18.518;2023-07-09T09:29:30;3.45;;;1.90;;
69213;SDS011;56325;47.030;18.518;2023-07-09T09:32:12;1.85;;;1.73;;
69213;SDS011;56325;47.030;18.518;2023-07-09T09:34:55;1.77;;;1.67;;
69213;SDS011;56325;47.030;18.518;2023-07-09T09:37:31;1.83;;;1.75;;
69213;SDS011;56325;47.030;18.518;2023-07-09T09:40:08;1.83;;;1.73;;
69213;SDS011;56325;47.030;18.518;2023-07-09T09:42:51;3.20;;;2.00;;
69213;SDS011;56325;47.030;18.518;2023-07-09T09:45:27;1.90;;;1.83;;
69213;SDS011;56325;47.030;18.518;2023-07-09T09:48:10;1.90;;;1.80;;
69213;SDS011;56325;47.030;18.518;2023-07-09T09:50:50;8.38;;;2.00;;
69213;SDS011;56325;47.030;18.518;2023-07-09T09:53:25;1.70;;;1.60;;
69213;SDS011;56325;47.030;18.518;2023-07-09T09:56:03;6.70;;;1.87;;
69213;SDS011;56325;47.030;18.518;2023-07-09T09:58:40;10.93;;;2.30;;
69213;SDS011;56325;47.030;18.518;2023-07-09T10:01:17;2.90;;;2.25;;
69213;SDS011;56325;47.030;18.518;2023-07-09T10:03:54;1.80;;;1.70;;
69213;SDS011;56325;47.030;18.518;2023-07-09T10:06:33;2.60;;;1.60;;
69213;SDS011;56325;47.030;18.518;2023-07-09T10:09:13;1.80;;;1.70;;
69213;SDS011;56325;47.030;18.518;2023-07-09T10:11:57;2.00;;;1.42;;
69213;SDS011;56325;47.030;18.518;2023-07-09T10:14:40;1.50;;;1.50;;
69213;SDS011;56325;47.030;18.518;2023-07-09T10:17:28;4.10;;;1.60;;
69213;SDS011;56325;47.030;18.518;2023-07-09T10:20:17;1.52;;;1.52;;
69213;SDS011;56325;47.030;18.518;2023-07-09T10:23:02;1.62;;;1.58;;
69213;SDS011;56325;47.030;18.518;2023-07-09T10:25:48;1.95;;;1.45;;
69213;SDS011;56325;47.030;18.518;2023-07-09T10:31:37;1.83;;;1.73;;
69213;SDS011;56325;47.030;18.518;2023-07-09T10:34:21;2.00;;;1.90;;
69213;SDS011;56325;47.030;18.518;2023-07-09T10:37:13;2.00;;;1.90;;
69213;SDS011;56325;47.030;18.518;2023-07-09T10:42:34;1.77;;;1.67;;
69213;SDS011;56325;47.030;18.518;2023-07-09T10:45:16;3.12;;;1.80;;
69213;SDS011;56325;47.030;18.518;2023-07-09T10:47:59;1.67;;;1.58;;
69213;SDS011;56325;47.030;18.518;2023-07-09T10:50:39;1.50;;;1.40;;
69213;SDS011;56325;47.030;18.518;2023-07-09T10:53:22;2.03;;;1.90;;
69213;SDS011;56325;47.030;18.518;2023-07-09T10:56:05;1.58;;;1.48;;
69213;SDS011;56325;47.030;18.518;2023-07-09T10:58:46;2.20;;;1.98;;
69213;SDS011;56325;47.030;18.518;2023-07-09T11:01:29;1.80;;;1.70;;
69213;SDS011;56325;47.030;18.518;2023-07-09T11:04:09;1.20;;;1.20;;
69213;SDS011;56325;47.030;18.518;2023-07-09T11:06:52;1.75;;;1.65;;
69213;SDS011;56325;47.030;18.518;2023-07-09T11:09:30;3.37;;;1.65;;
69213;SDS011;56325;47.030;18.518;2023-07-09T11:12:10;1.98;;;1.87;;
69213;SDS011;56325;47.030;18.518;2023-07-09T11:14:49;1.62;;;1.52;;
69213;SDS011;56325;47.030;18.518;2023-07-09T11:17:27;4.20;;;1.80;;
69213;SDS011;56325;47.030;18.518;2023-07-09T11:20:14;1.50;;;1.50;;
69213;SDS011;56325;47.030;18.518;2023-07-09T11:22:53;1.45;;;1.45;;
69213;SDS011;56325;47.030;18.518;2023-07-09T11:25:41;5.03;;;1.90;;
69213;SDS011;56325;47.030;18.518;2023-07-09T11:28:16;3.17;;;1.62;;
69213;SDS011;56325;47.030;18.518;2023-07-09T11:31:07;2.03;;;1.37;;
69213;SDS011;56325;47.030;18.518;2023-07-09T11:33:45;5.40;;;1.40;;
69213;SDS011;56325;47.030;18.518;2023-07-09T11:36:26;3.20;;;1.67;;
69213;SDS011;56325;47.030;18.518;2023-07-09T11:39:03;5.20;;;1.60;;
69213;SDS011;56325;47.030;18.518;2023-07-09T11:41:52;1.60;;;1.60;;
69213;SDS011;56325;47.030;18.518;2023-07-09T11:44:28;1.60;;;1.50;;
69213;SDS011;56325;47.030;18.518;2023-07-09T11:47:12;3.10;;;1.48;;
69213;SDS011;56325;47.030;18.518;2023-07-09T11:49:54;1.70;;;1.60;;
69213;SDS011;56325;47.030;18.518;2023-07-09T11:55:16;1.58;;;1.58;;
69213;SDS011;56325;47.030;18.518;2023-07-09T11:57:59;4.45;;;1.70;;
69213;SDS011;56325;47.030;18.518;2023-07-09T12:00:37;1.70;;;1.60;;
69213;SDS011;56325;47.030;18.518;2023-07-09T12:03:14;1.90;;;1.80;;
69213;SDS011;56325;47.030;18.518;2023-07-09T12:05:52;1.52;;;1.50;;
69213;SDS011;56325;47.030;18.518;2023-07-09T12:08:32;2.78;;;1.83;;
69213;SDS011;56325;47.030;18.518;2023-07-09T12:11:16;1.50;;;1.40;;
69213;SDS011;56325;47.030;18.518;2023-07-09T12:13:53;1.50;;;1.50;;
69213;SDS011;56325;47.030;18.518;2023-07-09T12:16:29;7.97;;;1.83;;
69213;SDS011;56325;47.030;18.518;2023-07-09T12:19:07;2.12;;;1.42;;
69213;SDS011;56325;47.030;18.518;2023-07-09T12:21:45;3.00;;;1.75;;
69213;SDS011;56325;47.030;18.518;2023-07-09T12:24:24;1.40;;;1.40;;
69213;SDS011;56325;47.030;18.518;2023-07-09T12:27:14;6.40;;;1.35;;
69213;SDS011;56325;47.030;18.518;2023-07-09T12:29:53;1.83;;;1.73;;
69213;SDS011;56325;47.030;18.518;2023-07-09T12:32:29;1.48;;;1.45;;
69213;SDS011;56325;47.030;18.518;2023-07-09T12:35:04;1.65;;;1.55;;
69213;SDS011;56325;47.030;18.518;2023-07-09T12:37:40;4.80;;;1.55;;
69213;SDS011;56325;47.030;18.518;2023-07-09T12:40:19;2.47;;;1.50;;
69213;SDS011;56325;47.030;18.518;2023-07-09T12:42:57;2.37;;;1.30;;
69213;SDS011;56325;47.030;18.518;2023-07-09T12:45:34;2.08;;;1.45;;
69213;SDS011;56325;47.030;18.518;2023-07-09T12:48:10;1.40;;;1.40;;
69213;SDS011;56325;47.030;18.518;2023-07-09T12:50:49;1.40;;;1.40;;
69213;SDS011;56325;47.030;18.518;2023-07-09T12:53:24;1.52;;;1.52;;
69213;SDS011;56325;47.030;18.518;2023-07-09T12:56:03;1.58;;;1.48;;
69213;SDS011;56325;47.030;18.518;2023-07-09T12:58:46;1.30;;;1.30;;
69213;SDS011;56325;47.030;18.518;2023-07-09T13:01:21;1.48;;;1.40;;
69213;SDS011;56325;47.030;18.518;2023-07-09T13:03:58;1.27;;;1.27;;
69213;SDS011;56325;47.030;18.518;2023-07-09T13:06:36;3.50;;;1.60;;
69213;SDS011;56325;47.030;18.518;2023-07-09T13:09:16;3.90;;;1.60;;
69213;SDS011;56325;47.030;18.518;2023-07-09T13:11:56;3.08;;;1.35;;
69213;SDS011;56325;47.030;18.518;2023-07-09T13:14:32;2.40;;;1.37;;
69213;SDS011;56325;47.030;18.518;2023-07-09T13:17:09;1.35;;;1.35;;
69213;SDS011;56325;47.030;18.518;2023-07-09T13:19:46;1.35;;;1.35;;
69213;SDS011;56325;47.030;18.518;2023-07-09T13:22:27;1.67;;;1.50;;
69213;SDS011;56325;47.030;18.518;2023-07-09T13:25:03;1.48;;;1.48;;
69213;SDS011;56325;47.030;18.518;2023-07-09T13:27:42;1.30;;;1.30;;
69213;SDS011;56325;47.030;18.518;2023-07-09T13:30:18;1.52;;;1.30;;
69213;SDS011;56325;47.030;18.518;2023-07-09T13:32:53;1.67;;;1.58;;
69213;SDS011;56325;47.030;18.518;2023-07-09T13:35:28;1.33;;;1.33;;
69213;SDS011;56325;47.030;18.518;2023-07-09T13:38:05;1.40;;;1.40;;
69213;SDS011;56325;47.030;18.518;2023-07-09T13:40:48;2.72;;;1.50;;
69213;SDS011;56325;47.030;18.518;2023-07-09T13:43:29;1.60;;;1.50;;
69213;SDS011;56325;47.030;18.518;2023-07-09T13:46:06;1.48;;;1.35;;
69213;SDS011;56325;47.030;18.518;2023-07-09T13:48:43;2.15;;;1.70;;
69213;SDS011;56325;47.030;18.518;2023-07-09T13:51:19;3.60;;;1.87;;
69213;SDS011;56325;47.030;18.518;2023-07-09T13:53:56;1.62;;;1.52;;
69213;SDS011;56325;47.030;18.518;2023-07-09T13:56:35;4.10;;;1.50;;
69213;SDS011;56325;47.030;18.518;2023-07-09T13:59:15;1.58;;;1.52;;
69213;SDS011;56325;47.030;18.518;2023-07-09T14:03:08;1.30;;;1.30;;
69213;SDS011;56325;47.030;18.518;2023-07-09T14:05:50;1.65;;;1.65;;
69213;SDS011;56325;47.030;18.518;2023-07-09T14:08:25;2.35;;;1.73;;
69213;SDS011;56325;47.030;18.518;2023-07-09T14:11:00;3.10;;;1.62;;
69213;SDS011;56325;47.030;18.518;2023-07-09T14:13:35;1.80;;;1.70;;
69213;SDS011;56325;47.030;18.518;2023-07-09T14:16:11;4.10;;;1.52;;
69213;SDS011;56325;47.030;18.518;2023-07-09T14:18:49;2.00;;;1.90;;
69213;SDS011;56325;47.030;18.518;2023-07-09T14:21:25;1.55;;;1.50;;
69213;SDS011;56325;47.030;18.518;2023-07-09T14:24:01;6.07;;;1.52;;
69213;SDS011;56325;47.030;18.518;2023-07-09T14:26:48;3.37;;;1.95;;
69213;SDS011;56325;47.030;18.518;2023-07-09T14:29:24;1.70;;;1.60;;
69213;SDS011;56325;47.030;18.518;2023-07-09T14:32:00;1.70;;;1.60;;
69213;SDS011;56325;47.030;18.518;2023-07-09T14:34:37;2.03;;;1.52;;
69213;SDS011;56325;47.030;18.518;2023-07-09T14:37:14;2.05;;;1.48;;
69213;SDS011;56325;47.030;18.518;2023-07-09T14:39:49;1.73;;;1.60;;
69213;SDS011;56325;47.030;18.518;2023-07-09T14:42:24;1.40;;;1.40;;
69213;SDS011;56325;47.030;18.518;2023-07-09T14:44:59;10.23;;;1.92;;
69213;SDS011;56325;47.030;18.518;2023-07-09T14:47:35;2.55;;;1.40;;
69213;SDS011;56325;47.030;18.518;2023-07-09T14:50:11;1.73;;;1.62;;
69213;SDS011;56325;47.030;18.518;2023-07-09T14:52:47;1.60;;;1.60;;
69213;SDS011;56325;47.030;18.518;2023-07-09T14:55:22;2.37;;;1.40;;
69213;SDS011;56325;47.030;18.518;2023-07-09T14:57:58;1.60;;;1.58;;
69213;SDS011;56325;47.030;18.518;2023-07-09T15:00:33;3.00;;;1.35;;
69213;SDS011;56325;47.030;18.518;2023-07-09T15:03:09;1.35;;;1.35;;
69213;SDS011;56325;47.030;18.518;2023-07-09T15:05:47;1.27;;;1.27;;
69213;SDS011;56325;47.030;18.518;2023-07-09T15:08:23;1.40;;;1.40;;
69213;SDS011;56325;47.030;18.518;2023-07-09T15:11:00;1.40;;;1.40;;
69213;SDS011;56325;47.030;18.518;2023-07-09T15:13:35;1.60;;;1.60;;
69213;SDS011;56325;47.030;18.518;2023-07-09T15:16:11;3.42;;;1.80;;
69213;SDS011;56325;47.030;18.518;2023-07-09T15:18:46;2.05;;;1.40;;
69213;SDS011;56325;47.030;18.518;2023-07-09T15:21:22;3.85;;;1.40;;
69213;SDS011;56325;47.030;18.518;2023-07-09T15:23:57;1.50;;;1.40;;
69213;SDS011;56325;47.030;18.518;2023-07-09T15:26:31;3.33;;;1.60;;
69213;SDS011;56325;47.030;18.518;2023-07-09T15:29:09;1.35;;;1.35;;
69213;SDS011;56325;47.030;18.518;2023-07-09T15:31:48;1.73;;;1.45;;
69213;SDS011;56325;47.030;18.518;2023-07-09T15:34:23;2.83;;;1.80;;
69213;SDS011;56325;47.030;18.518;2023-07-09T15:36:59;1.42;;;1.42;;
69213;SDS011;56325;47.030;18.518;2023-07-09T15:39:35;3.03;;;1.58;;
69213;SDS011;56325;47.030;18.518;2023-07-09T15:42:10;1.65;;;1.55;;
69213;SDS011;56325;47.030;18.518;2023-07-09T15:44:46;1.33;;;1.33;;